Time;durP1;ratioP1;P1;durP2;ratioP2;P2;SDS_P1;SDS_P2;PMS_P1;PMS_P2;Temp;Humidity;BMP_temperature;BMP_pressure;BME280_temperature;BME280_humidity;BME280_pressure;Samples;Min_cycle;Max_cycle;Signal;HPM_P1;HPM_P2
2021/07/31 00:01:38;;;;;;;11.13;6.57;;;17.70;96.50;;;;;;6221217;23;20046;-71
2021/07/31 00:04:07;;;;;;;11.05;6.53;;;17.60;96.60;;;;;;6250484;23;19996;-70
2021/07/31 00:06:33;;;;;;;11.48;7.13;;;17.50;96.70;;;;;;6251010;23;20427;-71
2021/07/31 00:08:59;;;;;;;11.20;7.35;;;17.40;96.90;;;;;;6251196;23;20004;-71
2021/07/31 00:11:26;;;;;;;11.52;6.95;;;17.30;97.00;;;;;;6250528;23;20415;-72
2021/07/31 00:13:52;;;;;;;10.98;7.38;;;17.20;97.10;;;;;;6250645;23;20004;-71
2021/07/31 00:16:17;;;;;;;12.20;6.78;;;17.30;97.20;;;;;;6249383;23;20007;-71
2021/07/31 00:18:43;;;;;;;11.32;7.20;;;17.30;97.10;;;;;;6250547;23;20043;-71
2021/07/31 00:21:09;;;;;;;12.95;6.55;;;17.30;97.10;;;;;;6251031;23;20412;-71
2021/07/31 00:23:35;;;;;;;13.90;6.10;;;17.40;97.10;;;;;;6250901;23;20055;-71
2021/07/31 00:26:01;;;;;;;8.23;6.00;;;17.40;96.70;;;;;;6250728;23;20235;-70
2021/07/31 00:28:27;;;;;;;10.50;5.70;;;17.50;96.60;;;;;;6224209;23;20007;-71
2021/07/31 00:30:53;;;;;;;9.77;6.30;;;17.50;96.60;;;;;;6249391;23;20000;-70
2021/07/31 00:33:19;;;;;;;13.98;6.60;;;17.60;96.50;;;;;;6250945;23;20361;-72
2021/07/31 00:35:45;;;;;;;8.65;5.75;;;17.70;96.30;;;;;;6223913;23;20004;-70
2021/07/31 00:38:11;;;;;;;9.82;5.82;;;17.80;96.10;;;;;;6250935;23;20010;-70
2021/07/31 00:40:36;;;;;;;8.88;5.60;;;17.80;96.10;;;;;;6223567;23;20301;-70
2021/07/31 00:43:06;;;;;;;9.43;5.78;;;17.70;96.10;;;;;;6250513;23;20302;-73
2021/07/31 00:45:33;;;;;;;8.65;5.63;;;17.70;96.00;;;;;;6248817;23;20004;-71
2021/07/31 00:47:58;;;;;;;9.18;5.65;;;17.60;96.20;;;;;;6223652;23;20004;-73
2021/07/31 00:50:28;;;;;;;8.85;5.85;;;17.60;96.10;;;;;;6250286;23;20131;-70
2021/07/31 00:52:55;;;;;;;9.13;5.93;;;17.60;96.20;;;;;;6250319;23;20389;-72
2021/07/31 00:55:24;;;;;;;10.10;5.85;;;17.50;96.20;;;;;;6250488;23;20001;-72
2021/07/31 00:57:50;;;;;;;8.35;5.43;;;17.40;96.40;;;;;;6223600;23;20004;-72
2021/07/31 01:00:18;;;;;;;9.55;5.70;;;17.30;96.70;;;;;;6248673;23;20010;-72
2021/07/31 01:02:44;;;;;;;9.80;6.05;;;17.10;96.70;;;;;;6223593;23;20004;-72
2021/07/31 01:05:10;;;;;;;8.98;5.45;;;17.00;96.70;;;;;;6251018;23;20134;-72
2021/07/31 01:07:36;;;;;;;11.05;6.07;;;17.00;97.00;;;;;;6250189;23;20000;-72
2021/07/31 01:10:03;;;;;;;10.45;5.90;;;16.90;97.10;;;;;;6250503;23;20011;-72
2021/07/31 01:12:33;;;;;;;9.88;6.20;;;17.00;97.00;;;;;;6250388;23;20000;-72
2021/07/31 01:14:59;;;;;;;8.68;5.13;;;17.10;96.80;;;;;;6248378;23;20000;-72
2021/07/31 01:17:25;;;;;;;9.82;5.97;;;17.10;96.80;;;;;;6250328;23;20004;-72
2021/07/31 01:19:51;;;;;;;8.55;5.60;;;17.10;96.60;;;;;;6250215;23;20373;-72
2021/07/31 01:22:17;;;;;;;12.75;6.05;;;17.20;96.70;;;;;;6249795;23;20011;-72
2021/07/31 01:24:42;;;;;;;9.05;5.63;;;17.30;96.60;;;;;;6250224;23;20343;-71
2021/07/31 01:27:08;;;;;;;9.80;5.63;;;17.20;96.50;;;;;;6250105;23;20007;-71
2021/07/31 01:29:34;;;;;;;9.60;6.20;;;17.00;96.60;;;;;;6249028;23;20083;-71
2021/07/31 01:32:11;;;;;;;10.63;6.10;;;16.90;96.90;;;;;;6250503;23;20068;-71
2021/07/31 01:34:39;;;;;;;11.00;5.55;;;16.80;97.00;;;;;;6223344;23;20008;-71
2021/07/31 01:37:05;;;;;;;9.07;5.93;;;16.80;97.00;;;;;;6250677;23;20008;-72
2021/07/31 01:39:30;;;;;;;8.82;5.18;;;16.80;96.90;;;;;;6250075;23;20079;-72
2021/07/31 01:41:56;;;;;;;8.52;5.32;;;16.80;96.90;;;;;;6223644;23;20004;-72
2021/07/31 01:44:22;;;;;;;8.15;4.78;;;16.80;97.00;;;;;;6248662;23;20004;-72
2021/07/31 01:46:48;;;;;;;7.40;4.97;;;16.80;96.90;;;;;;6250287;23;20001;-72
2021/07/31 01:49:13;;;;;;;8.00;5.10;;;16.80;97.00;;;;;;6250122;23;20012;-72
2021/07/31 01:51:42;;;;;;;13.48;5.45;;;16.80;97.00;;;;;;6250125;23;20015;-72
2021/07/31 01:54:10;;;;;;;8.65;5.32;;;16.80;97.00;;;;;;6250100;23;20000;-72
2021/07/31 01:56:36;;;;;;;11.13;5.25;;;16.90;97.20;;;;;;6250408;23;20034;-71
2021/07/31 01:59:01;;;;;;;10.90;6.00;;;16.90;97.10;;;;;;6249783;23;20362;-71
2021/07/31 02:01:27;;;;;;;9.18;6.18;;;16.90;97.30;;;;;;6248443;23;19997;-72
2021/07/31 02:03:53;;;;;;;10.05;6.32;;;16.80;97.40;;;;;;6249188;23;20008;-72
2021/07/31 02:06:18;;;;;;;10.50;6.22;;;16.80;97.50;;;;;;6250309;23;20258;-73
2021/07/31 02:08:44;;;;;;;9.63;6.00;;;16.80;97.50;;;;;;6250211;23;20004;-72
2021/07/31 02:11:11;;;;;;;10.43;5.85;;;16.70;97.60;;;;;;6249935;23;20000;-72
2021/07/31 02:13:37;;;;;;;12.82;7.10;;;16.70;97.40;;;;;;6249811;23;20011;-73
2021/07/31 02:16:03;;;;;;;11.70;7.45;;;16.70;97.20;;;;;;6248568;23;20023;-73
2021/07/31 02:18:29;;;;;;;17.38;9.93;;;16.50;97.70;;;;;;6248330;23;20000;-73
2021/07/31 02:20:54;;;;;;;17.50;9.13;;;16.30;97.30;;;;;;6249655;23;20000;-74
2021/07/31 02:23:22;;;;;;;13.85;9.63;;;16.10;97.20;;;;;;6249870;23;20027;-73
2021/07/31 02:25:48;;;;;;;16.98;10.85;;;16.00;97.30;;;;;;6249552;23;19997;-73
2021/07/31 02:28:13;;;;;;;14.48;9.63;;;15.90;96.90;;;;;;6248398;23;20011;-73
2021/07/31 02:30:39;;;;;;;19.08;10.18;;;15.80;96.70;;;;;;6248548;23;20011;-73
2021/07/31 02:33:05;;;;;;;17.98;10.57;;;15.80;96.20;;;;;;6249586;23;20004;-73
2021/07/31 02:35:35;;;;;;;20.10;11.93;;;15.80;95.80;;;;;;6249879;23;20003;-73
2021/07/31 02:38:02;;;;;;;15.23;10.43;;;15.70;96.00;;;;;;6250089;23;20007;-73
2021/07/31 02:40:28;;;;;;;19.50;11.68;;;15.70;95.70;;;;;;6249912;23;20326;-73
2021/07/31 02:42:54;;;;;;;20.17;11.52;;;15.80;94.90;;;;;;6249386;23;20000;-73
2021/07/31 02:45:20;;;;;;;19.77;11.35;;;15.80;95.20;;;;;;6221600;23;20090;-73
2021/07/31 02:47:46;;;;;;;20.70;11.63;;;15.70;95.30;;;;;;6222844;23;20358;-74
2021/07/31 02:50:11;;;;;;;19.73;11.18;;;15.70;94.90;;;;;;6250113;23;20008;-73
2021/07/31 02:52:37;;;;;;;17.33;12.05;;;15.70;94.80;;;;;;6249348;23;20032;-73
2021/07/31 02:55:03;;;;;;;19.35;11.63;;;15.70;94.70;;;;;;6249648;23;20031;-73
2021/07/31 02:57:30;;;;;;;20.95;13.15;;;15.70;94.60;;;;;;6249428;23;20071;-73
2021/07/31 02:59:56;;;;;;;18.92;11.93;;;15.70;94.40;;;;;;6247532;23;20039;-73
2021/07/31 03:02:22;;;;;;;19.70;12.25;;;15.70;94.10;;;;;;6249367;23;20004;-73
2021/07/31 03:04:47;;;;;;;21.27;11.35;;;15.70;94.30;;;;;;6249750;23;20075;-73
2021/07/31 03:07:13;;;;;;;21.52;11.75;;;15.70;94.60;;;;;;6249361;23;20024;-73
2021/07/31 03:09:38;;;;;;;18.98;12.23;;;15.60;94.50;;;;;;6249209;23;20039;-73
2021/07/31 03:12:04;;;;;;;25.23;10.82;;;15.60;94.40;;;;;;6249285;23;20024;-73
2021/07/31 03:14:30;;;;;;;16.35;11.27;;;15.60;94.10;;;;;;6248009;23;20004;-73
2021/07/31 03:16:56;;;;;;;21.20;11.77;;;15.60;94.10;;;;;;6249210;23;20008;-73
2021/07/31 03:19:21;;;;;;;31.48;11.55;;;15.60;94.20;;;;;;6249605;23;20015;-73
2021/07/31 03:21:47;;;;;;;16.58;10.43;;;15.60;94.20;;;;;;6249102;23;19996;-73
2021/07/31 03:24:12;;;;;;;18.70;10.65;;;15.50;94.20;;;;;;6249425;23;20011;-73
2021/07/31 03:26:38;;;;;;;19.38;11.55;;;15.50;94.10;;;;;;6249130;23;20004;-73
2021/07/31 03:29:04;;;;;;;14.05;10.05;;;15.40;94.30;;;;;;6249331;23;20058;-73
2021/07/31 03:31:29;;;;;;;15.07;9.82;;;15.30;94.50;;;;;;6247709;23;20015;-73
2021/07/31 03:33:55;;;;;;;16.17;10.07;;;15.20;94.60;;;;;;6249430;23;20000;-73
2021/07/31 03:36:21;;;;;;;13.13;8.98;;;15.10;94.80;;;;;;6249358;23;20004;-73
2021/07/31 03:38:46;;;;;;;16.20;10.57;;;15.00;94.20;;;;;;6248554;23;20031;-73
2021/07/31 03:41:12;;;;;;;15.40;10.15;;;15.00;94.00;;;;;;6248851;23;20003;-73
2021/07/31 03:43:37;;;;;;;14.80;9.18;;;14.90;94.00;;;;;;6249124;23;20019;-73
2021/07/31 03:46:07;;;;;;;17.63;9.77;;;14.80;94.50;;;;;;6247488;23;20011;-73
2021/07/31 03:48:33;;;;;;;14.80;9.38;;;14.70;94.10;;;;;;6249479;23;20000;-73
2021/07/31 03:50:58;;;;;;;13.75;8.63;;;14.70;94.10;;;;;;6248808;23;20007;-73
2021/07/31 03:53:24;;;;;;;12.60;8.30;;;14.60;94.50;;;;;;6248536;23;20008;-73
2021/07/31 03:55:50;;;;;;;13.20;8.70;;;14.50;94.30;;;;;;6249136;23;20293;-74
2021/07/31 03:58:16;;;;;;;15.13;9.57;;;14.50;94.50;;;;;;6249060;23;20008;-73
2021/07/31 04:00:45;;;;;;;16.58;10.98;;;14.40;94.10;;;;;;6247069;23;20057;-73
2021/07/31 04:03:11;;;;;;;12.55;8.68;;;14.40;94.00;;;;;;6248987;23;20000;-73
2021/07/31 04:05:40;;;;;;;14.45;9.48;;;14.30;94.30;;;;;;6249083;23;20000;-73
2021/07/31 04:08:09;;;;;;;16.77;8.93;;;14.20;93.70;;;;;;6248986;23;20067;-73
2021/07/31 04:10:35;;;;;;;15.68;9.80;;;14.30;93.70;;;;;;6249237;23;20004;-73
2021/07/31 04:13:01;;;;;;;15.63;10.52;;;14.30;93.20;;;;;;6248791;23;20004;-73
2021/07/31 04:15:26;;;;;;;16.30;10.50;;;14.40;93.30;;;;;;6247355;23;20010;-73
2021/07/31 04:17:52;;;;;;;17.08;10.02;;;14.40;93.50;;;;;;6248952;23;20004;-73
2021/07/31 04:20:18;;;;;;;16.55;10.27;;;14.40;93.70;;;;;;6248941;23;20008;-73
2021/07/31 04:22:43;;;;;;;14.18;10.05;;;14.40;93.10;;;;;;6248944;23;20086;-72
2021/07/31 04:25:09;;;;;;;12.63;9.02;;;14.40;93.50;;;;;;6248805;23;20082;-72
2021/07/31 04:27:35;;;;;;;18.30;10.00;;;14.40;93.10;;;;;;6249095;23;20015;-74
2021/07/31 04:30:01;;;;;;;16.73;9.35;;;14.50;92.30;;;;;;6220911;23;20031;-74
2021/07/31 04:32:28;;;;;;;13.43;8.65;;;14.60;92.40;;;;;;6248963;23;20004;-75
2021/07/31 04:34:53;;;;;;;16.65;9.10;;;14.80;92.30;;;;;;6248633;23;20008;-74
2021/07/31 04:37:19;;;;;;;12.57;8.93;;;14.80;92.60;;;;;;6248832;23;20000;-73
2021/07/31 04:39:44;;;;;;;14.98;8.63;;;14.90;92.40;;;;;;6249124;23;20028;-74
2021/07/31 04:42:10;;;;;;;13.93;8.60;;;14.90;92.30;;;;;;6221610;23;20008;-73
2021/07/31 04:44:36;;;;;;;13.10;7.68;;;14.90;92.50;;;;;;6247254;23;20040;-73
2021/07/31 04:47:01;;;;;;;10.13;7.13;;;15.00;92.30;;;;;;6248612;23;20003;-73
2021/07/31 04:49:27;;;;;;;13.88;6.85;;;14.90;92.60;;;;;;6249650;23;20011;-73
2021/07/31 04:51:53;;;;;;;17.15;7.80;;;14.80;93.00;;;;;;6224233;23;20258;-73
2021/07/31 04:54:18;;;;;;;15.32;7.28;;;14.80;92.90;;;;;;6251061;23;20135;-73
2021/07/31 04:56:44;;;;;;;14.75;8.05;;;14.70;93.20;;;;;;6250720;23;20039;-72
2021/07/31 04:59:10;;;;;;;13.82;6.97;;;14.60;93.30;;;;;;6248880;23;19996;-73
2021/07/31 05:01:36;;;;;;;12.05;7.03;;;14.60;93.00;;;;;;6250087;23;20000;-72
2021/07/31 05:04:01;;;;;;;10.52;6.25;;;14.70;93.20;;;;;;6250806;23;20042;-72
2021/07/31 05:06:27;;;;;;;9.75;5.85;;;14.70;92.90;;;;;;6250828;23;20023;-72
2021/07/31 05:08:53;;;;;;;10.80;6.88;;;14.70;93.00;;;;;;6250337;23;20012;-73
2021/07/31 05:11:21;;;;;;;13.07;5.95;;;14.60;93.80;;;;;;6250969;23;20038;-72
2021/07/31 05:13:48;;;;;;;10.20;6.93;;;14.50;93.60;;;;;;6250715;23;20057;-72
2021/07/31 05:16:15;;;;;;;15.00;6.88;;;14.50;94.10;;;;;;6249200;23;20019;-72
2021/07/31 05:18:41;;;;;;;10.98;5.57;;;14.40;93.80;;;;;;6223649;23;20366;-72
2021/07/31 05:21:08;;;;;;;10.00;5.63;;;14.40;93.50;;;;;;6250650;23;20004;-71
2021/07/31 05:23:34;;;;;;;11.40;5.55;;;14.40;94.70;;;;;;6223946;23;20004;-71
2021/07/31 05:25:59;;;;;;;8.65;5.45;;;14.20;95.20;;;;;;6250806;23;20008;-72
2021/07/31 05:28:25;;;;;;;7.95;5.07;;;14.30;94.70;;;;;;6249697;23;20350;-72
2021/07/31 05:30:50;;;;;;;9.75;4.93;;;14.50;94.30;;;;;;6248915;23;20004;-72
2021/07/31 05:33:16;;;;;;;11.27;4.82;;;14.40;96.00;;;;;;6250280;23;20195;-72
2021/07/31 05:35:42;;;;;;;12.48;5.07;;;14.50;96.90;;;;;;6250539;23;20004;-72
2021/07/31 05:38:07;;;;;;;9.90;4.15;;;14.50;98.00;;;;;;6250390;23;20008;-71
2021/07/31 05:40:33;;;;;;;12.32;4.50;;;14.60;98.00;;;;;;6250219;23;20008;-72
2021/07/31 05:42:59;;;;;;;9.90;3.78;;;14.60;98.00;;;;;;6250273;23;20003;-71
2021/07/31 05:45:26;;;;;;;6.25;3.50;;;14.60;98.00;;;;;;6248771;23;20008;-71
2021/07/31 05:47:52;;;;;;;8.00;3.83;;;14.50;98.00;;;;;;6249643;23;20035;-71
2021/07/31 05:50:17;;;;;;;8.68;3.38;;;14.40;98.00;;;;;;6249017;23;20003;-71
2021/07/31 05:52:43;;;;;;;8.32;4.00;;;14.30;98.00;;;;;;6250011;23;20006;-71
2021/07/31 05:55:09;;;;;;;6.68;3.25;;;14.40;98.00;;;;;;6250332;23;20004;-71
2021/07/31 05:57:35;;;;;;;9.48;4.35;;;14.40;98.00;;;;;;6249895;23;20000;-72
2021/07/31 06:00:02;;;;;;;7.10;3.35;;;14.50;98.00;;;;;;6248456;23;20087;-71
2021/07/31 06:02:27;;;;;;;7.18;3.50;;;14.50;98.00;;;;;;6222844;23;20385;-71
2021/07/31 06:04:53;;;;;;;8.27;3.40;;;14.60;98.00;;;;;;6250426;23;20090;-71
2021/07/31 06:07:19;;;;;;;8.93;3.17;;;14.80;98.00;;;;;;6250080;23;19996;-71
2021/07/31 06:09:53;;;;;;;6.82;2.83;;;14.90;98.00;;;;;;6222896;23;20035;-71
2021/07/31 06:12:20;;;;;;;6.20;2.88;;;15.00;98.00;;;;;;6249660;23;20000;-71
2021/07/31 06:14:47;;;;;;;6.60;2.60;;;15.10;97.70;;;;;;6248453;23;20358;-72
2021/07/31 06:17:13;;;;;;;8.77;3.25;;;15.20;97.50;;;;;;6249693;23;20070;-73
2021/07/31 06:19:38;;;;;;;9.70;2.70;;;15.40;97.70;;;;;;6249776;23;20079;-72
2021/07/31 06:22:04;;;;;;;4.60;2.40;;;15.40;96.80;;;;;;6249770;23;20026;-72
2021/07/31 06:24:31;;;;;;;5.57;2.35;;;15.60;97.20;;;;;;6249782;23;20053;-72
2021/07/31 06:26:56;;;;;;;7.90;2.65;;;15.70;96.50;;;;;;6249698;23;20286;-72
2021/07/31 06:29:22;;;;;;;7.22;2.63;;;15.80;95.60;;;;;;6248002;23;20007;-72
2021/07/31 06:31:48;;;;;;;8.07;2.30;;;15.90;96.20;;;;;;6249688;23;20000;-72
2021/07/31 06:34:13;;;;;;;7.80;2.85;;;16.00;95.10;;;;;;6249329;23;20012;-72
2021/07/31 06:36:41;;;;;;;4.97;2.28;;;16.00;95.10;;;;;;6249693;23;20305;-72
2021/07/31 06:39:07;;;;;;;6.70;2.25;;;16.10;94.80;;;;;;6249435;23;20392;-73
2021/07/31 06:41:33;;;;;;;6.68;2.13;;;16.20;94.30;;;;;;6249457;23;20001;-73
2021/07/31 06:43:58;;;;;;;6.63;2.42;;;16.30;93.80;;;;;;6249631;23;20016;-73
2021/07/31 06:46:24;;;;;;;5.78;2.45;;;16.30;93.90;;;;;;6247937;23;19996;-73
2021/07/31 06:48:52;;;;;;;11.93;2.40;;;16.50;93.40;;;;;;6249742;23;20028;-73
2021/07/31 06:51:21;;;;;;;5.93;2.08;;;17.10;92.40;;;;;;6249351;23;20270;-73
2021/07/31 06:53:48;;;;;;;6.55;2.30;;;17.60;90.90;;;;;;6249640;23;20071;-73
2021/07/31 06:56:16;;;;;;;7.22;2.20;;;18.00;88.20;;;;;;6249683;23;20031;-72
2021/07/31 06:58:45;;;;;;;7.80;2.70;;;18.10;87.90;;;;;;6222312;23;20024;-72
2021/07/31 07:01:12;;;;;;;7.78;2.70;;;18.30;88.70;;;;;;6247773;23;20000;-73
2021/07/31 07:03:39;;;;;;;5.85;2.55;;;18.50;88.40;;;;;;6248957;23;20000;-72
2021/07/31 07:06:05;;;;;;;9.35;2.85;;;18.60;87.20;;;;;;6249078;23;20067;-72
2021/07/31 07:08:32;;;;;;;7.95;2.75;;;18.00;88.90;;;;;;6249090;23;20258;-73
2021/07/31 07:10:58;;;;;;;6.55;2.67;;;17.60;90.30;;;;;;6222469;23;20015;-72
2021/07/31 07:13:24;;;;;;;9.07;2.95;;;17.50;91.20;;;;;;6249398;23;20004;-71
2021/07/31 07:15:49;;;;;;;7.88;2.92;;;17.60;91.20;;;;;;6247764;23;20000;-72
2021/07/31 07:18:15;;;;;;;6.25;2.83;;;17.60;91.00;;;;;;6249239;23;20004;-71
2021/07/31 07:20:41;;;;;;;7.05;2.67;;;17.70;92.00;;;;;;6249396;23;20317;-71
2021/07/31 07:23:10;;;;;;;6.22;2.78;;;17.90;90.70;;;;;;6248972;23;20004;-71
2021/07/31 07:25:36;;;;;;;9.50;2.97;;;18.00;91.10;;;;;;6249260;23;20019;-73
2021/07/31 07:28:02;;;;;;;6.18;2.80;;;17.80;90.50;;;;;;6249482;23;20004;-72
2021/07/31 07:30:28;;;;;;;7.60;3.25;;;17.70;91.10;;;;;;6247684;23;20032;-73
2021/07/31 07:32:54;;;;;;;7.90;3.25;;;17.70;91.60;;;;;;6249305;23;20354;-73
2021/07/31 07:35:21;;;;;;;4.78;2.33;;;17.90;89.90;;;;;;6249234;23;20000;-72
2021/07/31 07:37:47;;;;;;;6.90;2.75;;;18.00;90.20;;;;;;6248737;23;20004;-72
2021/07/31 07:40:13;;;;;;;9.32;2.95;;;18.30;90.60;;;;;;6249112;23;20010;-72
2021/07/31 07:42:39;;;;;;;8.13;2.60;;;18.60;89.60;;;;;;6249163;23;20011;-72
2021/07/31 07:45:07;;;;;;;9.15;2.15;;;18.80;88.00;;;;;;6247477;23;20012;-72
2021/07/31 07:47:33;;;;;;;10.80;2.80;;;19.50;86.20;;;;;;6249198;23;20000;-72
2021/07/31 07:50:05;;;;;;;7.53;2.40;;;20.10;83.40;;;;;;6249080;23;20026;-72
2021/07/31 07:52:34;;;;;;;5.22;2.08;;;20.90;82.70;;;;;;6248769;23;20008;-72
2021/07/31 07:54:59;;;;;;;10.05;2.63;;;20.90;80.70;;;;;;6249120;23;20075;-73
2021/07/31 07:57:26;;;;;;;5.93;2.25;;;20.80;80.20;;;;;;6248985;23;20028;-72
2021/07/31 07:59:51;;;;;;;4.90;2.03;;;21.00;78.90;;;;;;6220718;23;20087;-72
2021/07/31 08:02:17;;;;;;;6.70;2.47;;;21.30;78.30;;;;;;6249015;23;20027;-72
2021/07/31 08:04:44;;;;;;;5.53;2.45;;;21.90;75.50;;;;;;6248634;23;20027;-72
2021/07/31 08:07:11;;;;;;;12.18;2.42;;;22.50;75.60;;;;;;6249243;23;20130;-72
2021/07/31 08:09:38;;;;;;;6.78;2.25;;;22.60;74.60;;;;;;6222300;23;20107;-72
2021/07/31 08:12:05;;;;;;;6.38;2.25;;;22.50;75.10;;;;;;6248592;23;20012;-72
2021/07/31 08:14:31;;;;;;;5.47;2.08;;;21.40;77.70;;;;;;6220836;23;20031;-72
2021/07/31 08:16:57;;;;;;;9.35;2.25;;;21.80;77.20;;;;;;6249085;23;20365;-72
2021/07/31 08:19:23;;;;;;;5.47;2.22;;;21.30;77.60;;;;;;6248471;23;20083;-72
2021/07/31 08:21:49;;;;;;;6.68;2.38;;;21.50;78.30;;;;;;6248879;23;20004;-72
2021/07/31 08:24:16;;;;;;;10.20;2.38;;;22.10;76.00;;;;;;6248876;23;20001;-72
2021/07/31 08:26:43;;;;;;;7.82;2.40;;;21.40;77.90;;;;;;6251489;23;20261;-72
2021/07/31 08:29:10;;;;;;;6.45;2.13;;;20.90;79.10;;;;;;6249292;23;20235;-72
2021/07/31 08:31:38;;;;;;;6.78;2.65;;;21.00;79.30;;;;;;6250966;23;20100;-72
2021/07/31 08:34:04;;;;;;;9.02;2.30;;;21.20;76.70;;;;;;6250488;23;20007;-72
2021/07/31 08:36:29;;;;;;;3.65;1.75;;;20.70;77.90;;;;;;6250855;23;20008;-72
2021/07/31 08:38:56;;;;;;;6.97;2.35;;;21.20;77.10;;;;;;6251125;23;20003;-71
2021/07/31 08:41:22;;;;;;;5.60;2.10;;;21.70;75.40;;;;;;6250882;23;20431;-72
2021/07/31 08:43:48;;;;;;;5.90;1.95;;;22.30;75.60;;;;;;6250611;23;20012;-72
2021/07/31 08:46:14;;;;;;;7.20;2.50;;;23.10;73.30;;;;;;6249728;23;20011;-72
2021/07/31 08:48:42;;;;;;;4.80;1.75;;;23.00;72.00;;;;;;6250434;23;20004;-72
2021/07/31 08:51:09;;;;;;;6.20;1.98;;;23.40;72.20;;;;;;6223510;23;20001;-72
2021/07/31 08:53:35;;;;;;;6.03;1.88;;;23.30;70.80;;;;;;6250550;23;20004;-72
2021/07/31 08:56:01;;;;;;;6.97;1.85;;;23.30;71.20;;;;;;6250552;23;20007;-72
2021/07/31 08:58:27;;;;;;;4.57;1.60;;;23.40;70.90;;;;;;6250905;23;20274;-72
2021/07/31 09:00:55;;;;;;;4.60;1.85;;;23.70;69.80;;;;;;6248451;23;20325;-72
2021/07/31 09:03:21;;;;;;;4.40;1.90;;;24.00;71.40;;;;;;6250819;23;20003;-72
2021/07/31 09:05:48;;;;;;;4.38;1.85;;;24.60;68.90;;;;;;6250618;23;20000;-73
2021/07/31 09:08:14;;;;;;;7.07;1.92;;;24.30;68.20;;;;;;6250960;23;20405;-73
2021/07/31 09:10:42;;;;;;;5.03;1.80;;;24.40;69.60;;;;;;6250894;23;20004;-73
2021/07/31 09:13:17;;;;;;;5.00;2.13;;;24.70;68.50;;;;;;6250609;23;20027;-72
2021/07/31 09:15:48;;;;;;;5.15;1.77;;;23.60;68.90;;;;;;6248999;23;20011;-72
2021/07/31 09:18:30;;;;;;;6.22;2.28;;;22.20;73.40;;;;;;6251010;23;20265;-72
2021/07/31 09:21:16;;;;;;;5.43;2.05;;;22.80;72.30;;;;;;6249971;23;20007;-72
2021/07/31 09:23:52;;;;;;;5.68;1.80;;;23.40;69.30;;;;;;6249428;23;20079;-72
2021/07/31 09:26:36;;;;;;;6.32;1.95;;;23.30;70.50;;;;;;6250686;23;20027;-72
2021/07/31 09:29:09;;;;;;;5.15;1.90;;;24.00;69.20;;;;;;6250025;23;19996;-72
2021/07/31 09:32:00;;;;;;;6.45;2.22;;;24.90;66.30;;;;;;6250277;23;20008;-73
2021/07/31 09:34:37;;;;;;;5.10;1.73;;;24.70;66.80;;;;;;6235973;23;20076;-72
2021/07/31 09:37:28;;;;;;;4.95;1.88;;;24.40;67.00;;;;;;6249352;23;20000;-73
2021/07/31 09:40:00;;;;;;;4.85;1.70;;;24.30;70.00;;;;;;6250592;23;19997;-73
2021/07/31 09:42:35;;;;;;;7.63;2.08;;;24.90;67.70;;;;;;6249754;23;20258;-72
2021/07/31 09:45:04;;;;;;;8.43;2.35;;;25.30;66.70;;;;;;6248066;23;20032;-72
2021/07/31 09:47:32;;;;;;;6.45;2.13;;;25.20;65.90;;;;;;6249805;23;20406;-72
2021/07/31 09:49:58;;;;;;;3.63;1.67;;;23.90;67.30;;;;;;6249175;23;20079;-73
2021/07/31 09:52:25;;;;;;;5.85;2.03;;;23.90;69.20;;;;;;6249054;23;20000;-73
2021/07/31 09:54:53;;;;;;;6.97;2.40;;;24.90;66.50;;;;;;6249812;23;20299;-72
2021/07/31 09:57:23;;;;;;;4.70;1.90;;;25.10;66.00;;;;;;6249922;23;20027;-72
2021/07/31 09:59:55;;;;;;;4.88;2.10;;;25.40;65.70;;;;;;6248300;23;20011;-72
2021/07/31 10:02:22;;;;;;;4.40;1.88;;;24.50;67.10;;;;;;6249455;23;20003;-72
2021/07/31 10:04:52;;;;;;;5.50;1.80;;;24.20;68.50;;;;;;6249758;23;20006;-72
2021/07/31 10:07:19;;;;;;;5.22;2.08;;;24.10;66.60;;;;;;6250028;23;19996;-71
2021/07/31 10:09:49;;;;;;;4.32;1.90;;;23.30;69.50;;;;;;6249357;23;20007;-72
2021/07/31 10:12:26;;;;;;;6.05;1.90;;;22.90;69.80;;;;;;6223234;23;20091;-71
2021/07/31 10:14:53;;;;;;;6.53;1.98;;;22.60;71.80;;;;;;6248165;23;20316;-71
2021/07/31 10:17:30;;;;;;;5.25;2.20;;;23.00;70.40;;;;;;6250292;23;20004;-71
2021/07/31 10:19:57;;;;;;;6.25;1.85;;;23.80;69.80;;;;;;6248945;23;20079;-71
2021/07/31 10:22:45;;;;;;;4.57;2.00;;;24.90;66.70;;;;;;6249582;23;20004;-72
2021/07/31 10:25:15;;;;;;;5.72;1.83;;;24.80;65.10;;;;;;6249701;23;20032;-72
2021/07/31 10:27:41;;;;;;;4.18;1.70;;;24.80;66.20;;;;;;6248852;23;20000;-72
2021/07/31 10:30:27;;;;;;;3.78;1.80;;;24.90;63.40;;;;;;6248121;23;20396;-72
2021/07/31 10:32:57;;;;;;;5.72;1.77;;;24.20;64.80;;;;;;6248431;23;20012;-72
2021/07/31 10:35:30;;;;;;;4.60;1.90;;;24.00;66.40;;;;;;6247914;23;20008;-72
2021/07/31 10:38:07;;;;;;;6.07;1.90;;;24.90;64.70;;;;;;6249677;23;20004;-72
2021/07/31 10:40:44;;;;;;;5.68;1.58;;;25.10;63.20;;;;;;6249347;23;20008;-72
2021/07/31 10:43:11;;;;;;;3.90;1.50;;;25.00;65.10;;;;;;6248207;23;20071;-72
2021/07/31 10:45:37;;;;;;;5.25;1.67;;;25.40;63.30;;;;;;6246663;23;20004;-70
2021/07/31 10:48:26;;;;;;;3.55;1.50;;;25.40;61.20;;;;;;6248513;23;20035;-72
2021/07/31 10:50:52;;;;;;;8.88;1.42;;;25.70;62.80;;;;;;6249395;23;20007;-72
2021/07/31 10:53:21;;;;;;;4.55;1.75;;;26.00;58.50;;;;;;6248894;23;20071;-71
2021/07/31 10:55:46;;;;;;;3.25;1.30;;;25.30;61.30;;;;;;6248858;23;20014;-71
2021/07/31 10:58:14;;;;;;;5.07;2.20;;;25.20;61.50;;;;;;6248415;23;20497;-70
2021/07/31 11:00:53;;;;;;;4.03;1.60;;;25.40;61.10;;;;;;6247013;23;20028;-72
2021/07/31 11:03:21;;;;;;;5.20;1.38;;;26.10;61.80;;;;;;6248860;23;19996;-71
2021/07/31 11:05:58;;;;;;;4.53;1.70;;;25.50;58.60;;;;;;6248693;23;20004;-73
2021/07/31 11:08:30;;;;;;;2.97;1.50;;;25.20;59.20;;;;;;6248485;23;20010;-71
2021/07/31 11:11:01;;;;;;;5.25;1.70;;;24.80;58.40;;;;;;6249611;23;20261;-72
2021/07/31 11:13:29;;;;;;;4.55;1.65;;;25.20;59.40;;;;;;6249669;23;20320;-72
2021/07/31 11:16:04;;;;;;;5.10;1.58;;;25.70;58.00;;;;;;6247606;23;20075;-72
2021/07/31 11:18:36;;;;;;;6.60;1.70;;;25.90;56.50;;;;;;6249506;23;20004;-72
2021/07/31 11:21:22;;;;;;;5.90;1.80;;;25.40;57.50;;;;;;6248856;23;19999;-72
2021/07/31 11:23:59;;;;;;;4.43;1.58;;;25.00;59.10;;;;;;6249397;23;20000;-71
2021/07/31 11:26:33;;;;;;;3.88;1.52;;;24.60;58.90;;;;;;6244935;23;20004;-71
2021/07/31 11:29:00;;;;;;;4.68;1.60;;;24.80;59.30;;;;;;6246876;23;19997;-72
2021/07/31 11:31:29;;;;;;;4.55;1.65;;;25.40;59.90;;;;;;6244571;23;20000;-71
2021/07/31 11:34:05;;;;;;;4.57;1.67;;;25.50;59.80;;;;;;6246905;23;20011;-71
2021/07/31 11:36:32;;;;;;;3.03;1.40;;;25.50;60.20;;;;;;6247055;23;20004;-72
2021/07/31 11:38:59;;;;;;;6.10;1.50;;;25.00;60.20;;;;;;6246903;23;20007;-72
2021/07/31 11:41:25;;;;;;;3.25;1.50;;;24.70;58.90;;;;;;6248762;23;20000;-72
2021/07/31 11:43:56;;;;;;;4.60;1.60;;;25.20;60.90;;;;;;6247323;23;20061;-72
2021/07/31 11:46:32;;;;;;;6.45;1.85;;;25.50;60.60;;;;;;6246834;23;20001;-74
2021/07/31 11:49:00;;;;;;;4.75;1.60;;;24.80;61.50;;;;;;6222770;23;20004;-72
2021/07/31 11:51:27;;;;;;;4.63;1.60;;;24.10;64.10;;;;;;6249420;23;20361;-72
2021/07/31 11:53:53;;;;;;;3.85;1.48;;;24.40;64.40;;;;;;6249153;23;20004;-72
2021/07/31 11:56:19;;;;;;;7.82;1.75;;;25.20;62.90;;;;;;6249038;23;20003;-71
2021/07/31 11:58:47;;;;;;;4.93;1.83;;;25.40;60.40;;;;;;6249183;23;20238;-72
2021/07/31 12:01:13;;;;;;;6.15;1.50;;;24.80;63.00;;;;;;6247441;23;20032;-72
2021/07/31 12:03:53;;;;;;;4.60;1.80;;;24.60;61.20;;;;;;6249483;23;20003;-72
2021/07/31 12:06:34;;;;;;;4.13;1.88;;;24.20;61.00;;;;;;6249247;23;20265;-72
2021/07/31 12:09:08;;;;;;;4.78;1.77;;;24.00;63.20;;;;;;6249347;23;19996;-72
2021/07/31 12:11:43;;;;;;;5.90;1.73;;;23.90;63.10;;;;;;6248793;23;20004;-72
2021/07/31 12:14:31;;;;;;;5.30;1.40;;;23.60;63.00;;;;;;6247793;23;20007;-72
2021/07/31 12:17:16;;;;;;;4.88;1.67;;;23.60;62.90;;;;;;6248961;23;20001;-72
2021/07/31 12:19:45;;;;;;;4.78;1.52;;;23.50;63.80;;;;;;6249329;23;20000;-72
2021/07/31 12:22:13;;;;;;;4.75;1.85;;;23.80;64.00;;;;;;6249234;23;20000;-72
2021/07/31 12:24:40;;;;;;;8.50;1.60;;;24.60;63.00;;;;;;6249385;23;19997;-72
2021/07/31 12:27:06;;;;;;;4.32;1.70;;;24.50;61.50;;;;;;6249486;23;20000;-72
2021/07/31 12:29:39;;;;;;;4.70;1.70;;;24.00;63.80;;;;;;6247775;23;20376;-72
2021/07/31 12:32:24;;;;;;;4.13;1.60;;;23.60;63.50;;;;;;6248830;23;20035;-72
2021/07/31 12:34:51;;;;;;;5.25;1.60;;;23.40;64.90;;;;;;6249182;23;20050;-71
2021/07/31 12:37:18;;;;;;;9.15;2.10;;;23.40;64.20;;;;;;6248989;23;20008;-72
2021/07/31 12:39:44;;;;;;;4.00;1.65;;;23.50;64.20;;;;;;6249081;23;20000;-72
2021/07/31 12:42:10;;;;;;;7.25;2.78;;;23.90;64.90;;;;;;6248915;23;20047;-72
2021/07/31 12:44:38;;;;;;;5.97;2.00;;;23.90;63.70;;;;;;6247117;23;20008;-72
2021/07/31 12:47:05;;;;;;;2.92;1.38;;;23.70;63.50;;;;;;6249128;23;20004;-72